createdAt,value
2022-10-18T00:00:23.550Z,37.28
2022-10-18T00:02:58.180Z,36.40
2022-10-18T00:05:56.363Z,37.28
2022-10-18T00:08:24.307Z,36.42
2022-10-18T00:10:54.019Z,36.83
2022-10-18T00:13:30.635Z,36.40
2022-10-18T00:16:37.489Z,35.67
2022-10-18T00:19:07.338Z,35.90
2022-10-18T00:24:35.226Z,38.70
2022-10-18T00:28:13.953Z,39.45
2022-10-18T00:30:41.539Z,38.00
2022-10-18T00:33:21.233Z,37.35
2022-10-18T00:40:04.933Z,37.30
2022-10-18T00:42:51.183Z,38.00
2022-10-18T00:45:24.303Z,37.65
2022-10-18T00:48:07.029Z,37.33
2022-10-18T00:50:35.516Z,36.63
2022-10-18T00:53:23.008Z,35.35
2022-10-18T00:55:57.038Z,36.20
2022-10-18T00:58:27.233Z,37.17
2022-10-18T01:01:32.266Z,36.15
2022-10-18T01:04:27.449Z,35.40
2022-10-18T01:07:36.738Z,35.67
2022-10-18T01:10:28.569Z,34.03
2022-10-18T01:13:16.962Z,32.85
2022-10-18T01:15:57.678Z,34.33
2022-10-18T01:19:16.836Z,33.47
2022-10-18T01:22:02.927Z,33.35
2022-10-18T01:25:46.376Z,32.00
2022-10-18T01:28:56.294Z,30.35
2022-10-18T01:31:38.444Z,29.33
2022-10-18T01:34:17.671Z,28.48
2022-10-18T01:36:54.958Z,28.08
2022-10-18T01:39:28.842Z,27.73
2022-10-18T01:41:58.498Z,27.23
2022-10-18T01:44:34.820Z,25.80
2022-10-18T01:47:06.352Z,27.13
2022-10-18T01:57:00.378Z,26.70
2022-10-18T01:59:58.108Z,25.23
2022-10-18T02:03:38.194Z,24.75
2022-10-18T02:06:31.895Z,25.45
2022-10-18T02:09:13.933Z,25.40
2022-10-18T02:15:26.265Z,25.17
2022-10-18T02:18:16.561Z,26.55
2022-10-18T02:20:57.891Z,25.60
2022-10-18T02:27:43.608Z,24.80
2022-10-18T02:30:14.549Z,25.73
2022-10-18T02:33:29.714Z,26.10
2022-10-18T02:36:04.819Z,26.15
2022-10-18T02:38:35.408Z,26.83
2022-10-18T02:41:07.717Z,27.42
2022-10-18T02:51:57.693Z,24.60
2022-10-18T03:03:06.149Z,24.15
2022-10-18T03:05:36.988Z,26.52
2022-10-18T03:08:04.828Z,25.27
2022-10-18T03:10:35.876Z,26.10
2022-10-18T03:15:55.425Z,25.83
2022-10-18T03:27:07.243Z,25.15
2022-10-18T03:29:37.196Z,26.35
2022-10-18T03:35:47.530Z,25.02
2022-10-18T03:38:15.144Z,27.75
2022-10-18T03:45:09.439Z,26.23
2022-10-18T03:47:37.061Z,26.08
2022-10-18T03:50:16.220Z,25.75
2022-10-18T03:52:46.180Z,25.00
2022-10-18T03:55:25.886Z,24.45
2022-10-18T03:57:55.708Z,25.00
2022-10-18T04:03:35.263Z,26.95
2022-10-18T04:06:03.638Z,25.30
2022-10-18T04:08:42.859Z,25.50
2022-10-18T04:11:15.247Z,25.65
2022-10-18T04:13:50.333Z,26.40
2022-10-18T04:16:17.846Z,27.30
2022-10-18T04:18:47.568Z,28.33
2022-10-18T04:21:27.078Z,27.38
2022-10-18T04:23:54.539Z,25.67
2022-10-18T04:26:49.172Z,27.35
2022-10-18T04:29:38.514Z,26.00
2022-10-18T04:32:06.162Z,27.15
2022-10-18T04:34:36.121Z,27.77
2022-10-18T04:37:25.579Z,25.80
2022-10-18T04:39:55.975Z,26.40
2022-10-18T04:42:23.957Z,25.73
2022-10-18T04:46:16.639Z,27.88
2022-10-18T04:49:08.549Z,25.83
2022-10-18T04:52:01.207Z,26.33
2022-10-18T04:55:09.554Z,25.90
2022-10-18T04:57:36.950Z,26.55
2022-10-18T05:00:05.048Z,25.88
2022-10-18T05:02:34.026Z,27.00
2022-10-18T05:05:13.944Z,26.92
2022-10-18T05:08:21.499Z,27.48
2022-10-18T05:10:48.864Z,26.42
2022-10-18T05:13:16.831Z,25.45
2022-10-18T05:15:46.258Z,27.00
2022-10-18T05:18:38.542Z,25.52
2022-10-18T05:21:06.213Z,26.02
2022-10-18T05:23:37.796Z,27.13
2022-10-18T05:26:08.630Z,26.38
2022-10-18T05:28:57.090Z,26.35
2022-10-18T05:31:50.286Z,24.95
2022-10-18T05:34:37.557Z,24.85
2022-10-18T05:37:08.681Z,25.17
2022-10-18T05:40:26.109Z,25.67
2022-10-18T05:43:05.272Z,26.33
2022-10-18T05:45:36.044Z,27.10
2022-10-18T05:48:11.104Z,27.65
2022-10-18T05:50:40.346Z,27.02
2022-10-18T05:57:07.257Z,26.80
2022-10-18T05:59:37.893Z,26.25
2022-10-18T06:02:06.973Z,27.02
2022-10-18T06:04:36.485Z,26.02
2022-10-18T06:07:12.300Z,25.52
2022-10-18T06:09:39.805Z,26.95
2022-10-18T06:12:08.960Z,26.30
2022-10-18T06:18:57.801Z,25.20
2022-10-18T06:25:40.227Z,27.27
2022-10-18T06:28:10.129Z,26.33
2022-10-18T06:30:38.879Z,24.58
2022-10-18T06:33:06.080Z,26.48
2022-10-18T06:35:33.517Z,26.42
2022-10-18T06:39:00.318Z,19.42
2022-10-18T06:44:41.276Z,26.77
2022-10-18T06:47:11.634Z,26.95
2022-10-18T06:49:39.107Z,24.17
2022-10-18T06:56:28.786Z,24.88
2022-10-18T07:03:16.358Z,24.35
2022-10-18T07:06:38.833Z,27.83
2022-10-18T07:09:07.080Z,24.70
2022-10-18T07:12:09.567Z,26.23
2022-10-18T07:14:46.439Z,25.52
2022-10-18T07:17:13.787Z,25.25
2022-10-18T07:20:07.313Z,25.48
2022-10-18T07:22:38.110Z,25.25
2022-10-18T07:25:09.516Z,23.35
2022-10-18T07:27:48.576Z,22.40
2022-10-18T07:30:16.098Z,23.92
2022-10-18T07:32:43.401Z,25.88
2022-10-18T07:37:38.866Z,25.52
2022-10-18T07:40:06.695Z,23.85
2022-10-18T07:42:38.615Z,25.08
2022-10-18T07:45:06.090Z,25.38
2022-10-18T07:47:35.245Z,24.63
2022-10-18T07:50:06.084Z,24.25
2022-10-18T07:52:36.094Z,24.98
2022-10-18T07:55:09.468Z,24.73
2022-10-18T07:57:36.745Z,25.35
2022-10-18T08:00:08.922Z,24.55
2022-10-18T08:03:29.642Z,23.97
2022-10-18T08:05:57.208Z,23.05
2022-10-18T08:08:28.576Z,24.95
2022-10-18T08:11:01.505Z,24.10
2022-10-18T08:13:29.792Z,24.88
2022-10-18T08:16:02.541Z,23.23
2022-10-18T08:18:29.862Z,22.35
2022-10-18T08:21:03.758Z,24.48
2022-10-18T08:23:56.462Z,26.95
2022-10-18T08:26:26.950Z,24.88
2022-10-18T08:29:46.671Z,24.50
2022-10-18T08:32:16.418Z,24.13
2022-10-18T08:34:43.914Z,23.38
2022-10-18T08:37:13.890Z,24.42
2022-10-18T08:39:41.216Z,26.23
2022-10-18T08:50:38.883Z,26.83
2022-10-18T09:00:24.281Z,27.70
2022-10-18T09:03:55.915Z,24.83
2022-10-18T09:06:28.688Z,28.08
2022-10-18T09:13:27.789Z,24.13
2022-10-18T09:24:37.128Z,24.70
2022-10-18T09:27:18.898Z,27.80
2022-10-18T09:34:20.698Z,26.58
2022-10-18T09:41:19.816Z,23.70
2022-10-18T09:44:00.679Z,24.45
2022-10-18T09:51:05.553Z,24.92
2022-10-18T09:53:59.004Z,26.17
2022-10-18T10:09:28.820Z,23.02
2022-10-18T10:11:59.321Z,22.40
2022-10-18T10:34:42.366Z,22.55
2022-10-18T10:41:56.689Z,22.38
2022-10-18T10:48:33.358Z,21.88
2022-10-18T10:52:08.516Z,22.23
2022-10-18T10:57:52.789Z,20.15
2022-10-18T11:00:38.363Z,18.70
2022-10-18T11:03:30.075Z,15.95
2022-10-18T11:06:08.681Z,13.95
2022-10-18T11:17:18.661Z,16.90
2022-10-18T11:22:45.345Z,13.00
2022-10-18T11:37:38.262Z,12.75
2022-10-18T11:40:29.135Z,13.45
2022-10-18T11:43:38.870Z,12.30
2022-10-18T11:46:56.611Z,13.30
2022-10-18T11:49:39.072Z,11.70
2022-10-18T11:52:46.766Z,10.75
2022-10-18T11:55:35.271Z,10.82
2022-10-18T12:01:46.845Z,11.70
2022-10-18T12:04:48.894Z,14.70
2022-10-18T12:11:10.985Z,17.35
2022-10-18T12:25:20.410Z,21.97
2022-10-18T12:30:48.891Z,22.23
2022-10-18T12:34:27.377Z,22.10
2022-10-18T12:41:29.327Z,23.52
2022-10-18T12:44:27.480Z,30.25
2022-10-18T12:46:59.886Z,27.75
2022-10-18T12:49:38.193Z,26.00
2022-10-18T13:06:46.646Z,25.27
2022-10-18T13:09:20.323Z,30.23
2022-10-18T13:21:56.929Z,30.45
2022-10-18T13:35:29.695Z,35.58
2022-10-18T13:41:31.321Z,30.92
2022-10-18T13:44:37.710Z,34.97
2022-10-18T13:55:31.784Z,34.67
2022-10-18T14:02:49.784Z,34.43
2022-10-18T14:05:48.289Z,34.25
2022-10-18T14:09:14.231Z,36.50
2022-10-18T14:12:13.306Z,34.83
2022-10-18T14:14:56.626Z,35.42
2022-10-18T14:17:43.615Z,38.78
2022-10-18T14:20:29.948Z,36.75
2022-10-18T14:24:24.331Z,39.25
2022-10-18T14:26:48.134Z,35.22
2022-10-18T14:29:20.214Z,31.95
2022-10-18T14:31:57.973Z,39.55
2022-10-18T14:34:44.926Z,39.35
2022-10-18T14:37:39.017Z,39.28
2022-10-18T14:40:06.683Z,37.92
2022-10-18T14:42:48.765Z,35.40
2022-10-18T14:45:21.272Z,38.30
2022-10-18T14:47:50.699Z,43.50
2022-10-18T14:50:30.464Z,40.20
2022-10-18T14:53:04.049Z,41.28
2022-10-18T14:55:53.553Z,42.38
2022-10-18T14:58:52.338Z,42.70
2022-10-18T15:05:10.587Z,43.45
2022-10-18T15:07:38.212Z,37.53
2022-10-18T15:14:07.268Z,43.58
2022-10-18T15:16:39.043Z,39.67
2022-10-18T15:23:21.469Z,33.28
2022-10-18T15:33:23.247Z,38.95
2022-10-18T15:38:37.511Z,36.85
2022-10-18T15:41:39.509Z,38.17
2022-10-18T15:47:29.742Z,33.33
2022-10-18T15:50:00.638Z,34.40
2022-10-18T16:01:05.224Z,37.70
2022-10-18T16:04:10.262Z,34.30
2022-10-18T16:09:58.402Z,40.08
2022-10-18T16:12:27.894Z,41.80
2022-10-18T16:15:20.448Z,44.05
2022-10-18T16:18:28.388Z,45.05
2022-10-18T16:21:03.044Z,36.20
2022-10-18T16:23:32.755Z,41.75
2022-10-18T16:29:48.615Z,47.22
2022-10-18T16:32:18.505Z,48.13
2022-10-18T16:38:50.297Z,50.05
2022-10-18T16:44:58.550Z,47.05
2022-10-18T16:47:33.052Z,46.08
2022-10-18T16:53:53.406Z,45.80
2022-10-18T16:56:30.613Z,45.75
2022-10-18T16:59:09.477Z,47.83
2022-10-18T17:01:36.782Z,46.20
2022-10-18T17:04:05.609Z,44.67
2022-10-18T17:06:33.485Z,45.45
2022-10-18T17:13:06.934Z,45.17
2022-10-18T17:15:35.183Z,45.65
2022-10-18T17:18:27.822Z,45.22
2022-10-18T17:21:08.492Z,44.80
2022-10-18T17:24:49.666Z,45.17
2022-10-18T17:27:26.974Z,46.47
2022-10-18T17:29:59.225Z,43.95
2022-10-18T17:32:48.610Z,45.13
2022-10-18T17:38:01.964Z,44.55
2022-10-18T17:41:39.531Z,45.10
2022-10-18T17:47:20.324Z,44.65
2022-10-18T17:50:41.416Z,45.08
2022-10-18T17:53:09.620Z,43.67
2022-10-18T17:56:02.512Z,42.72
2022-10-18T17:59:01.344Z,43.60
2022-10-18T18:01:28.751Z,42.58
2022-10-18T18:04:04.295Z,44.95
2022-10-18T18:06:40.914Z,45.40
2022-10-18T18:09:11.256Z,43.53
2022-10-18T18:11:41.059Z,43.45
2022-10-18T18:15:02.500Z,44.17
2022-10-18T18:18:23.347Z,41.35
2022-10-18T18:20:54.566Z,41.63
2022-10-18T18:23:28.323Z,43.33
2022-10-18T18:26:01.274Z,43.47
2022-10-18T18:28:28.737Z,43.35
2022-10-18T18:30:57.455Z,40.40
2022-10-18T18:36:01.214Z,42.38
2022-10-18T18:38:28.645Z,42.90
2022-10-18T18:41:23.669Z,41.85
2022-10-18T18:43:59.079Z,43.50
2022-10-18T18:46:38.708Z,44.90
2022-10-18T18:49:10.208Z,44.08
2022-10-18T18:51:40.057Z,44.90
2022-10-18T18:54:09.072Z,46.47
2022-10-18T18:56:37.208Z,45.38
2022-10-18T18:59:10.862Z,45.38
2022-10-18T19:02:48.259Z,46.25
2022-10-18T19:05:48.141Z,44.40
2022-10-18T19:08:18.025Z,44.63
2022-10-18T19:10:51.854Z,46.90
2022-10-18T19:13:20.682Z,48.83
2022-10-18T19:15:47.922Z,50.00
2022-10-18T19:20:25.665Z,50.17
2022-10-18T19:21:51.235Z,48.88
2022-10-18T19:24:19.619Z,50.40
2022-10-18T19:26:58.963Z,49.13
2022-10-18T19:30:01.171Z,48.53
2022-10-18T19:36:22.500Z,49.33
2022-10-18T19:38:49.874Z,49.13
2022-10-18T19:41:17.149Z,49.25
2022-10-18T19:43:44.437Z,51.80
2022-10-18T19:46:12.037Z,50.22
2022-10-18T19:48:39.722Z,48.80
2022-10-18T19:51:09.548Z,50.13
2022-10-18T19:53:38.329Z,52.10
2022-10-18T19:56:09.658Z,49.67
2022-10-18T19:58:36.997Z,50.65
2022-10-18T20:01:04.603Z,52.53
2022-10-18T20:06:18.396Z,51.35
2022-10-18T20:08:49.858Z,52.55
2022-10-18T20:15:00.945Z,50.70
2022-10-18T20:17:31.059Z,52.97
2022-10-18T20:20:01.800Z,53.30
2022-10-18T20:22:32.434Z,52.38
2022-10-18T20:25:00.014Z,51.97
2022-10-18T20:27:27.273Z,53.30
2022-10-18T20:29:54.525Z,51.78
2022-10-18T20:32:21.801Z,52.40
2022-10-18T20:34:51.525Z,50.33
2022-10-18T20:37:20.927Z,50.25
2022-10-18T20:39:48.374Z,52.47
2022-10-18T20:42:15.694Z,50.78
2022-10-18T20:44:45.850Z,52.40
2022-10-18T20:47:13.214Z,51.83
2022-10-18T21:05:36.999Z,51.65
2022-10-18T21:08:25.007Z,51.75
2022-10-18T21:10:55.855Z,50.55
2022-10-18T21:13:23.581Z,51.97
2022-10-18T21:16:23.590Z,51.67
2022-10-18T21:18:50.870Z,53.13
2022-10-18T21:25:29.138Z,52.08
2022-10-18T21:28:25.375Z,52.85
2022-10-18T21:30:52.755Z,52.13
2022-10-18T21:33:24.074Z,52.08
2022-10-18T21:35:51.424Z,50.00
2022-10-18T21:38:18.662Z,51.72
2022-10-18T21:40:46.617Z,49.35
2022-10-18T21:43:15.415Z,49.60
2022-10-18T21:45:44.263Z,49.28
2022-10-18T21:48:11.651Z,50.22
2022-10-18T21:50:39.397Z,47.85
2022-10-18T21:53:29.849Z,50.47
2022-10-18T21:56:00.026Z,49.20
2022-10-18T21:58:40.453Z,49.83
2022-10-18T22:01:16.317Z,48.70
2022-10-18T22:06:20.794Z,49.63
2022-10-18T22:08:51.547Z,46.90
2022-10-18T22:16:07.687Z,50.20
2022-10-18T22:18:45.992Z,50.47
2022-10-18T22:21:41.545Z,49.92
2022-10-18T22:24:30.707Z,47.67
2022-10-18T22:26:59.166Z,47.22
2022-10-18T22:29:26.675Z,50.33
2022-10-18T22:32:33.232Z,48.33
2022-10-18T22:35:00.642Z,49.38
2022-10-18T22:37:38.916Z,48.03
2022-10-18T22:40:06.953Z,49.42
2022-10-18T22:45:55.116Z,48.55
2022-10-18T22:48:22.485Z,46.60
2022-10-18T22:50:49.817Z,48.33
2022-10-18T22:53:18.507Z,47.13
2022-10-18T22:55:52.004Z,49.05
2022-10-18T22:58:20.397Z,49.60
2022-10-18T23:00:50.230Z,50.30
2022-10-18T23:03:47.687Z,48.28
2022-10-18T23:06:38.131Z,48.63
2022-10-18T23:09:11.030Z,50.97
2022-10-18T23:11:39.284Z,49.42
2022-10-18T23:14:10.142Z,49.30
2022-10-18T23:16:38.936Z,49.10
2022-10-18T23:19:06.412Z,49.50
2022-10-18T23:21:38.663Z,48.65
2022-10-18T23:24:13.487Z,47.78
2022-10-18T23:26:52.918Z,47.63
2022-10-18T23:32:14.776Z,50.83
2022-10-18T23:34:52.824Z,48.97
2022-10-18T23:37:49.636Z,50.42
2022-10-18T23:40:30.588Z,49.45
2022-10-18T23:42:59.490Z,51.05
2022-10-18T23:45:39.034Z,51.17
2022-10-18T23:48:38.876Z,48.33
2022-10-18T23:51:49.277Z,50.08
2022-10-18T23:54:16.531Z,49.28
2022-10-18T23:56:52.971Z,49.63
2022-10-18T23:59:20.667Z,48.95
